Time;durP1;ratioP1;P1;durP2;ratioP2;P2;SDS_P1;SDS_P2;PMS_P1;PMS_P2;Temp;Humidity;BMP_temperature;BMP_pressure;BME280_temperature;BME280_humidity;BME280_pressure;Samples;Min_cycle;Max_cycle;Signal;HPM_P1;HPM_P2
2020/12/12 00:02:16;;;;;;;4.53;4.23;;;;;;;17.87;46.39;98555.53;5052166;28;20661;-66
2020/12/12 00:04:42;;;;;;;4.50;4.20;;;;;;;17.85;46.15;98554.91;5051393;28;20701;-66
2020/12/12 00:07:09;;;;;;;4.60;4.30;;;;;;;17.91;46.39;98556.75;5034535;28;20199;-66
2020/12/12 00:09:38;;;;;;;4.40;4.10;;;;;;;17.97;46.54;98550.47;5052465;28;20188;-66
2020/12/12 00:12:04;;;;;;;4.30;4.00;;;;;;;18.03;46.23;98552.31;5052149;28;20184;-66
2020/12/12 00:14:30;;;;;;;4.40;4.10;;;;;;;18.09;46.27;98554.16;5051362;28;20184;-66
2020/12/12 00:16:57;;;;;;;4.40;4.07;;;;;;;18.18;46.37;98556.59;5051016;28;20188;-66
2020/12/12 00:19:23;;;;;;;4.40;4.10;;;;;;;18.29;46.17;98569.44;5051184;28;20188;-66
2020/12/12 00:21:55;;;;;;;4.10;3.80;;;;;;;18.37;46.16;98567.28;5050909;28;20209;-66
2020/12/12 00:24:21;;;;;;;4.10;3.80;;;;;;;18.45;45.75;98566.19;5051011;28;20545;-64
2020/12/12 00:26:47;;;;;;;4.13;3.83;;;;;;;18.52;45.94;98563.44;5050143;28;20249;-64
2020/12/12 00:29:13;;;;;;;4.00;3.70;;;;;;;18.60;45.66;98569.41;5050906;28;20211;-64
2020/12/12 00:31:43;;;;;;;3.73;3.53;;;;;;;18.63;45.78;98568.16;5050989;28;20183;-59
2020/12/12 00:34:09;;;;;;;4.00;3.70;;;;;;;18.67;45.92;98562.06;5050878;28;20566;-66
2020/12/12 00:36:39;;;;;;;3.77;3.57;;;;;;;18.69;45.63;98568.13;5049923;28;20184;-66
2020/12/12 00:39:06;;;;;;;3.80;3.60;;;;;;;18.67;45.82;98563.97;5049858;28;20204;-59
2020/12/12 00:41:39;;;;;;;3.80;3.60;;;;;;;18.67;45.50;98564.78;5053567;28;20223;-59
2020/12/12 00:44:05;;;;;;;3.67;3.47;;;;;;;18.63;45.44;98569.00;5053813;28;20750;-60
2020/12/12 00:46:31;;;;;;;3.67;3.47;;;;;;;18.59;45.62;98573.16;5054570;28;20192;-61
2020/12/12 00:48:57;;;;;;;3.43;3.23;;;;;;;18.55;45.41;98565.72;5054449;28;20235;-61
2020/12/12 00:51:23;;;;;;;3.47;3.20;;;;;;;18.52;45.47;98577.81;5054253;28;20192;-66
2020/12/12 00:53:49;;;;;;;3.53;3.33;;;;;;;18.46;45.98;98569.75;5054401;28;20212;-61
2020/12/12 00:56:16;;;;;;;3.73;3.50;;;;;;;18.40;45.69;98574.13;5054580;28;20184;-61
2020/12/12 00:58:42;;;;;;;3.53;3.23;;;;;;;18.35;45.66;98568.56;5054468;28;20200;-61
2020/12/12 01:01:08;;;;;;;3.57;3.37;;;;;;;18.30;45.55;98574.63;5054448;28;20762;-66
2020/12/12 01:03:34;;;;;;;3.47;3.27;;;;;;;18.27;45.79;98579.66;5054475;28;20184;-66
2020/12/12 01:06:00;;;;;;;3.30;3.10;;;;;;;18.20;45.73;98581.56;5054184;28;20188;-66
2020/12/12 01:08:26;;;;;;;3.40;3.10;;;;;;;18.14;46.14;98579.72;5054085;28;20234;-66
2020/12/12 01:10:52;;;;;;;3.20;3.00;;;;;;;18.08;46.15;98571.44;5054121;28;20181;-61
2020/12/12 01:13:19;;;;;;;3.20;3.00;;;;;;;18.03;46.00;98582.09;5054055;28;20262;-61
2020/12/12 01:15:45;;;;;;;3.10;2.90;;;;;;;18.02;45.98;98585.84;5054056;28;20187;-61
2020/12/12 01:18:11;;;;;;;2.87;2.67;;;;;;;17.98;46.37;98586.47;5053012;28;20201;-61
2020/12/12 01:20:37;;;;;;;3.27;3.03;;;;;;;17.99;46.09;98583.59;5053782;28;20572;-61
2020/12/12 01:23:04;;;;;;;3.10;2.90;;;;;;;18.00;45.93;98585.25;5053800;28;20585;-66
2020/12/12 01:25:30;;;;;;;3.27;3.07;;;;;;;18.01;45.64;98583.38;5053658;28;20287;-66
2020/12/12 01:27:56;;;;;;;3.40;3.20;;;;;;;18.01;46.25;98591.47;5053636;28;20211;-66
2020/12/12 01:30:22;;;;;;;3.30;3.10;;;;;;;18.03;46.32;98583.97;5053788;28;20207;-66
2020/12/12 01:32:48;;;;;;;3.20;3.00;;;;;;;18.01;46.26;98586.91;5052889;28;20547;-66
2020/12/12 01:35:14;;;;;;;3.00;2.80;;;;;;;18.02;46.43;98591.25;5053656;28;20641;-66
2020/12/12 01:37:43;;;;;;;3.00;2.80;;;;;;;18.03;46.05;98594.81;5053729;28;20238;-66
2020/12/12 01:40:10;;;;;;;3.00;2.80;;;;;;;18.04;45.97;98597.28;5053696;28;20271;-66
2020/12/12 01:42:36;;;;;;;3.17;2.97;;;;;;;18.05;46.36;98590.81;5052536;28;20301;-66
2020/12/12 01:45:03;;;;;;;3.00;2.80;;;;;;;18.05;46.39;98593.53;5053609;28;20193;-66
2020/12/12 01:47:30;;;;;;;3.17;2.97;;;;;;;18.07;46.15;98596.03;5053444;28;20253;-66
2020/12/12 01:49:56;;;;;;;2.80;2.60;;;;;;;18.07;46.19;98604.97;5051830;28;20203;-66
2020/12/12 01:52:22;;;;;;;3.00;2.80;;;;;;;18.08;46.00;98601.22;5052328;28;20196;-66
2020/12/12 01:54:48;;;;;;;2.77;2.67;;;;;;;18.08;45.95;98612.03;5052437;28;20233;-66
2020/12/12 01:57:18;;;;;;;2.77;2.60;;;;;;;18.09;45.94;98612.88;5053104;28;20196;-66
2020/12/12 01:59:45;;;;;;;2.90;2.70;;;;;;;18.07;46.29;98613.09;5052424;28;20279;-66
2020/12/12 02:02:15;;;;;;;2.43;2.33;;;;;;;18.04;45.73;98618.94;5053152;28;20270;-64
2020/12/12 02:04:42;;;;;;;2.63;2.53;;;;;;;18.04;46.25;98620.81;5036191;28;20191;-64
2020/12/12 02:07:08;;;;;;;2.57;2.47;;;;;;;18.00;46.33;98617.72;5035732;28;20188;-65
2020/12/12 02:09:35;;;;;;;2.63;2.53;;;;;;;17.99;45.96;98615.22;5053135;28;20227;-60
2020/12/12 02:12:01;;;;;;;3.03;2.83;;;;;;;17.96;46.33;98615.63;5052147;28;20619;-58
2020/12/12 02:14:27;;;;;;;3.23;2.93;;;;;;;17.94;45.83;98610.44;5052162;28;20192;-58
2020/12/12 02:16:53;;;;;;;2.70;2.50;;;;;;;17.91;46.32;98619.00;5053023;28;20189;-65
2020/12/12 02:19:19;;;;;;;2.87;2.67;;;;;;;17.86;46.47;98608.00;5053708;28;20212;-65
2020/12/12 02:21:50;;;;;;;2.80;2.60;;;;;;;17.88;46.04;98619.44;5053427;28;20208;-65
2020/12/12 02:24:16;;;;;;;2.70;2.50;;;;;;;17.94;46.27;98613.16;5052149;28;20192;-65
2020/12/12 02:26:43;;;;;;;2.80;2.60;;;;;;;18.00;45.83;98617.72;5052774;28;20188;-58
2020/12/12 02:29:10;;;;;;;2.53;2.43;;;;;;;18.08;45.65;98611.22;5051590;28;20204;-59
2020/12/12 02:31:37;;;;;;;2.50;2.40;;;;;;;18.17;46.13;98614.50;5052497;28;20585;-58
2020/12/12 02:34:03;;;;;;;2.40;2.30;;;;;;;18.27;45.98;98612.16;5052485;28;20180;-63
2020/12/12 02:36:34;;;;;;;2.30;2.20;;;;;;;18.36;46.19;98613.56;5063141;28;20230;-65
2020/12/12 02:39:00;;;;;;;2.30;2.10;;;;;;;18.45;45.64;98614.09;5072323;28;20675;-58
2020/12/12 02:41:26;;;;;;;2.50;2.40;;;;;;;18.51;46.00;98616.78;5072354;28;20199;-58
2020/12/12 02:43:52;;;;;;;2.47;2.37;;;;;;;18.58;45.64;98614.84;5072268;28;20187;-59
2020/12/12 02:46:18;;;;;;;2.20;2.10;;;;;;;18.64;45.52;98624.00;5072208;28;20183;-59
2020/12/12 02:48:44;;;;;;;2.30;2.10;;;;;;;18.68;45.46;98623.34;5072106;28;20681;-59
2020/12/12 02:51:10;;;;;;;2.23;2.13;;;;;;;18.69;45.75;98618.75;5072175;28;20192;-65
2020/12/12 02:53:36;;;;;;;2.03;1.93;;;;;;;18.70;45.79;98618.56;5072418;28;20215;-65
2020/12/12 02:56:02;;;;;;;2.10;2.00;;;;;;;18.69;45.70;98627.75;5072440;28;20192;-65
2020/12/12 02:58:28;;;;;;;2.30;2.20;;;;;;;18.69;45.42;98624.19;5072191;28;20268;-65
2020/12/12 03:00:54;;;;;;;2.00;1.90;;;;;;;18.66;45.69;98630.88;5072071;28;20215;-65
2020/12/12 03:03:21;;;;;;;2.23;2.13;;;;;;;18.64;45.75;98630.25;5070327;28;20192;-64
2020/12/12 03:05:47;;;;;;;2.30;2.20;;;;;;;18.58;45.60;98635.69;5071985;28;20274;-65
2020/12/12 03:08:13;;;;;;;2.43;2.33;;;;;;;18.53;45.64;98636.38;5071749;28;20212;-57
2020/12/12 03:10:39;;;;;;;2.20;2.10;;;;;;;18.47;45.72;98629.13;5070839;28;20237;-65
2020/12/12 03:13:05;;;;;;;2.10;2.00;;;;;;;18.45;45.42;98636.59;5054233;28;20201;-66
2020/12/12 03:15:31;;;;;;;2.37;2.27;;;;;;;18.39;45.67;98643.72;5071851;28;20676;-58
2020/12/12 03:17:57;;;;;;;2.17;2.07;;;;;;;18.29;45.87;98637.13;5071695;28;20199;-58
2020/12/12 03:20:23;;;;;;;2.20;2.10;;;;;;;18.21;45.97;98638.22;5071755;28;20264;-58
2020/12/12 03:22:50;;;;;;;2.13;2.03;;;;;;;18.17;45.67;98644.28;5071608;28;20316;-58
2020/12/12 03:25:16;;;;;;;1.90;1.80;;;;;;;18.10;45.61;98647.84;5071661;28;20179;-63
2020/12/12 03:27:42;;;;;;;2.10;2.00;;;;;;;18.06;45.72;98656.63;5071505;28;20208;-63
2020/12/12 03:30:08;;;;;;;2.10;2.00;;;;;;;18.00;46.19;98655.63;5071936;28;20218;-63
2020/12/12 03:32:34;;;;;;;2.40;2.20;;;;;;;18.02;45.81;98652.69;5070708;28;20316;-63
2020/12/12 03:35:00;;;;;;;2.00;1.90;;;;;;;18.07;45.98;98653.69;5071862;28;20187;-64
2020/12/12 03:37:26;;;;;;;2.17;2.07;;;;;;;18.10;45.98;98657.84;5071773;28;20227;-59
2020/12/12 03:39:52;;;;;;;1.93;1.83;;;;;;;18.12;45.88;98660.34;5071691;28;20521;-60
2020/12/12 03:42:18;;;;;;;1.83;1.73;;;;;;;18.15;46.00;98658.03;5071378;28;20269;-59
2020/12/12 03:44:44;;;;;;;1.77;1.67;;;;;;;18.20;45.60;98651.97;5071549;28;20211;-60
2020/12/12 03:47:10;;;;;;;1.80;1.70;;;;;;;18.28;45.89;98665.28;5071285;28;20180;-60
2020/12/12 03:49:36;;;;;;;1.97;1.87;;;;;;;18.33;45.90;98660.03;5071225;28;20231;-59
2020/12/12 03:52:02;;;;;;;2.00;1.90;;;;;;;18.37;45.77;98662.09;5071518;28;20179;-59
2020/12/12 03:54:30;;;;;;;1.77;1.67;;;;;;;18.43;45.72;98665.78;5071461;28;20589;-59
2020/12/12 03:56:56;;;;;;;1.87;1.77;;;;;;;18.44;45.36;98667.44;5071375;28;20187;-59
2020/12/12 03:59:22;;;;;;;1.90;1.80;;;;;;;18.46;45.43;98662.69;5071249;28;20195;-60
2020/12/12 04:01:48;;;;;;;1.90;1.80;;;;;;;18.47;45.39;98666.22;5071104;28;20763;-60
2020/12/12 04:04:14;;;;;;;1.93;1.83;;;;;;;18.45;45.36;98674.53;5071313;28;20190;-58
2020/12/12 04:06:41;;;;;;;2.00;1.90;;;;;;;18.45;45.20;98671.81;5071356;28;20190;-63
2020/12/12 04:09:07;;;;;;;2.10;2.00;;;;;;;18.43;45.40;98671.22;5071322;28;20199;-63
2020/12/12 04:11:33;;;;;;;1.80;1.70;;;;;;;18.39;45.69;98678.94;5070446;28;20274;-63
2020/12/12 04:13:59;;;;;;;1.73;1.63;;;;;;;18.38;45.73;98679.16;5073179;28;20186;-63
2020/12/12 04:16:25;;;;;;;1.70;1.60;;;;;;;18.33;45.44;98687.13;5075428;28;20183;-60
2020/12/12 04:18:51;;;;;;;2.03;1.93;;;;;;;18.30;45.71;98690.25;5075117;28;20210;-58
2020/12/12 04:21:17;;;;;;;1.80;1.70;;;;;;;18.26;45.57;98697.16;5075060;28;20545;-65
2020/12/12 04:23:46;;;;;;;1.90;1.80;;;;;;;18.22;45.46;98695.94;5075042;28;20266;-65
2020/12/12 04:26:12;;;;;;;1.77;1.67;;;;;;;18.16;45.94;98702.19;5074976;28;20180;-59
2020/12/12 04:28:39;;;;;;;1.90;1.70;;;;;;;18.09;45.71;98697.63;5074044;28;20217;-66
2020/12/12 04:31:05;;;;;;;1.73;1.63;;;;;;;18.02;45.53;98704.97;5074962;28;20265;-59
2020/12/12 04:33:31;;;;;;;1.57;1.50;;;;;;;17.98;45.58;98711.84;5074050;28;20180;-65
2020/12/12 04:35:58;;;;;;;1.60;1.50;;;;;;;17.97;45.95;98704.75;5074975;28;20191;-60
2020/12/12 04:38:24;;;;;;;1.73;1.63;;;;;;;17.97;46.07;98709.31;5074637;28;20195;-65
2020/12/12 04:40:52;;;;;;;1.83;1.73;;;;;;;17.96;45.67;98708.50;5074514;28;20749;-58
2020/12/12 04:43:18;;;;;;;1.80;1.70;;;;;;;17.97;46.26;98707.44;5073850;28;20175;-59
2020/12/12 04:45:44;;;;;;;1.70;1.60;;;;;;;18.01;45.90;98716.84;5074798;28;20183;-59
2020/12/12 04:48:10;;;;;;;1.60;1.50;;;;;;;18.08;46.08;98704.09;5073889;28;20522;-59
2020/12/12 04:50:36;;;;;;;1.80;1.70;;;;;;;18.16;46.19;98708.44;5074784;28;20198;-59
2020/12/12 04:53:14;;;;;;;1.43;1.43;;;;;;;18.27;45.81;98709.66;5073855;28;20179;-65
2020/12/12 04:55:45;;;;;;;1.37;1.37;;;;;;;18.38;46.09;98711.66;5074963;28;20211;-65
2020/12/12 04:58:17;;;;;;;1.47;1.40;;;;;;;18.44;45.87;98705.38;5073395;28;20278;-58
2020/12/12 05:00:44;;;;;;;1.40;1.40;;;;;;;18.53;45.85;98703.25;5057318;28;20184;-59
2020/12/12 05:03:14;;;;;;;1.50;1.50;;;;;;;18.60;45.67;98712.19;5074451;28;20176;-60
2020/12/12 05:05:40;;;;;;;1.30;1.30;;;;;;;18.65;45.53;98706.97;5074231;28;20207;-60
2020/12/12 05:08:08;;;;;;;1.20;1.20;;;;;;;18.68;45.33;98717.38;5074352;28;20208;-60
2020/12/12 05:10:42;;;;;;;1.50;1.40;;;;;;;18.69;45.31;98714.47;5073587;28;20191;-58
2020/12/12 05:13:21;;;;;;;1.40;1.30;;;;;;;18.69;45.24;98709.03;5074204;28;20211;-59
2020/12/12 05:15:48;;;;;;;1.20;1.20;;;;;;;18.70;45.20;98716.13;5074077;28;20191;-59
2020/12/12 05:18:14;;;;;;;1.43;1.40;;;;;;;18.68;45.44;98718.19;5056160;28;20210;-58
2020/12/12 05:20:40;;;;;;;1.60;1.50;;;;;;;18.66;45.74;98719.47;5074030;28;20180;-58
2020/12/12 05:23:15;;;;;;;1.30;1.30;;;;;;;18.62;45.48;98712.78;5074126;28;20221;-60
2020/12/12 05:25:42;;;;;;;1.47;1.43;;;;;;;18.53;45.57;98728.47;5073467;28;20181;-60
2020/12/12 05:28:09;;;;;;;1.40;1.40;;;;;;;18.50;45.46;98723.50;5074225;28;20203;-60
2020/12/12 05:30:36;;;;;;;1.50;1.40;;;;;;;18.43;45.73;98725.38;5073906;28;20691;-60
2020/12/12 05:33:02;;;;;;;1.50;1.43;;;;;;;18.39;45.31;98730.41;5073884;28;20187;-60
2020/12/12 05:35:29;;;;;;;1.50;1.40;;;;;;;18.31;45.65;98732.53;5073838;28;20183;-60
2020/12/12 05:37:55;;;;;;;1.50;1.50;;;;;;;18.28;45.66;98730.25;5073621;28;20527;-60
2020/12/12 05:40:21;;;;;;;1.50;1.40;;;;;;;18.18;45.54;98730.69;5072761;28;20190;-60
2020/12/12 05:42:48;;;;;;;1.50;1.40;;;;;;;18.16;45.63;98734.69;5073661;28;20207;-60
2020/12/12 05:45:15;;;;;;;1.30;1.30;;;;;;;18.09;46.05;98740.94;5073631;28;20218;-59
2020/12/12 05:47:41;;;;;;;1.37;1.37;;;;;;;18.16;45.79;98740.09;5072634;28;20195;-64
2020/12/12 05:50:07;;;;;;;1.30;1.30;;;;;;;18.16;45.49;98742.78;5073401;28;20187;-59
2020/12/12 05:52:34;;;;;;;1.40;1.40;;;;;;;18.15;45.72;98747.38;5072494;28;20171;-59
2020/12/12 05:55:00;;;;;;;1.40;1.40;;;;;;;18.16;45.99;98754.47;5072443;28;20198;-58
2020/12/12 05:57:27;;;;;;;1.30;1.30;;;;;;;18.17;46.04;98760.69;5072270;28;20328;-64
2020/12/12 05:59:54;;;;;;;1.40;1.40;;;;;;;18.17;45.58;98755.28;5072383;28;20178;-64
2020/12/12 06:02:23;;;;;;;1.40;1.30;;;;;;;18.17;46.09;98760.69;5073601;28;20211;-60
2020/12/12 06:04:50;;;;;;;1.40;1.30;;;;;;;18.16;46.10;98768.00;5072912;28;20230;-60
2020/12/12 06:07:38;;;;;;;1.43;1.37;;;;;;;18.15;45.68;98768.22;5073325;28;20199;-63
2020/12/12 06:10:05;;;;;;;1.20;1.20;;;;;;;18.15;45.80;98771.75;5072384;28;20201;-63
2020/12/12 06:12:32;;;;;;;1.60;1.50;;;;;;;18.16;45.87;98775.28;5073084;28;20168;-64
2020/12/12 06:14:58;;;;;;;1.30;1.20;;;;;;;18.17;46.21;98779.66;5072955;28;20187;-59
2020/12/12 06:17:37;;;;;;;1.27;1.27;;;;;;;18.15;46.23;98782.56;5072827;28;20565;-59
2020/12/12 06:20:04;;;;;;;1.30;1.23;;;;;;;18.16;46.26;98778.00;5072155;28;20620;-60
2020/12/12 06:22:30;;;;;;;1.20;1.20;;;;;;;18.15;46.09;98782.56;5073028;28;20223;-65
2020/12/12 06:25:01;;;;;;;1.30;1.30;;;;;;;18.14;45.90;98786.34;5072062;28;20207;-65
2020/12/12 06:27:36;;;;;;;1.20;1.20;;;;;;;18.12;45.84;98791.13;5072994;28;20214;-66
2020/12/12 06:30:04;;;;;;;1.20;1.10;;;;;;;18.06;45.89;98795.53;5071715;28;20214;-64
2020/12/12 06:32:30;;;;;;;1.20;1.20;;;;;;;18.05;46.31;98801.16;5072548;28;20312;-64
2020/12/12 06:34:56;;;;;;;1.10;1.10;;;;;;;18.02;45.77;98801.56;5071691;28;20186;-60
2020/12/12 06:37:37;;;;;;;1.20;1.20;;;;;;;18.00;46.06;98807.22;5071496;28;20661;-59
2020/12/12 06:40:10;;;;;;;1.37;1.37;;;;;;;17.98;46.07;98808.44;5072954;28;20278;-65
2020/12/12 06:42:46;;;;;;;1.27;1.27;;;;;;;17.95;45.88;98815.09;5072981;28;20689;-65
2020/12/12 06:45:15;;;;;;;1.20;1.20;;;;;;;17.94;46.13;98816.16;5072684;28;20179;-66
2020/12/12 06:47:43;;;;;;;1.20;1.20;;;;;;;17.97;45.89;98818.44;5072378;28;20298;-66
2020/12/12 06:50:23;;;;;;;1.03;1.03;;;;;;;18.04;45.93;98819.28;5072350;28;20203;-66
2020/12/12 06:52:49;;;;;;;1.13;1.13;;;;;;;18.13;46.21;98821.75;5071490;28;20270;-64
2020/12/12 06:55:17;;;;;;;1.00;1.00;;;;;;;18.20;46.18;98822.56;5072114;28;20631;-63
2020/12/12 06:57:45;;;;;;;1.10;1.10;;;;;;;18.28;45.77;98825.88;5072039;28;20203;-63
2020/12/12 07:00:18;;;;;;;1.20;1.20;;;;;;;18.38;46.17;98830.84;5072193;28;20198;-63
2020/12/12 07:03:03;;;;;;;0.90;0.90;;;;;;;18.48;46.01;98830.41;5072326;28;20242;-66
2020/12/12 07:05:32;;;;;;;1.07;1.07;;;;;;;18.56;45.99;98844.53;5072161;28;20246;-60
2020/12/12 07:08:02;;;;;;;1.10;1.10;;;;;;;18.62;45.55;98832.00;5071907;28;20549;-60
2020/12/12 07:10:29;;;;;;;1.20;1.20;;;;;;;18.66;45.79;98842.22;5071925;28;20615;-60
2020/12/12 07:12:55;;;;;;;1.10;1.10;;;;;;;18.70;45.50;98854.34;5071752;28;20217;-58
2020/12/12 07:15:21;;;;;;;1.17;1.17;;;;;;;18.72;45.42;98842.44;5071072;28;20180;-60
2020/12/12 07:17:47;;;;;;;1.10;1.10;;;;;;;18.73;45.54;98849.53;5072228;28;20844;-66
2020/12/12 07:20:13;;;;;;;1.10;1.10;;;;;;;18.72;45.67;98853.28;5071245;28;20216;-60
2020/12/12 07:22:39;;;;;;;1.20;1.20;;;;;;;18.72;45.30;98864.13;5071113;28;20214;-64
2020/12/12 07:25:07;;;;;;;1.30;1.30;;;;;;;18.68;45.65;98867.25;5072062;28;20188;-59
2020/12/12 07:27:34;;;;;;;1.10;1.10;;;;;;;18.64;45.68;98871.44;5071724;28;20296;-59
2020/12/12 07:30:00;;;;;;;1.20;1.20;;;;;;;18.59;45.69;98870.38;5071694;28;20180;-64
2020/12/12 07:32:26;;;;;;;1.13;1.13;;;;;;;18.55;45.71;98864.56;5071715;28;20191;-60
2020/12/12 07:34:57;;;;;;;1.17;1.17;;;;;;;18.49;45.77;98867.28;5054138;28;20190;-66
2020/12/12 07:37:23;;;;;;;1.20;1.20;;;;;;;18.43;45.74;98868.94;5071674;28;20663;-60
2020/12/12 07:39:50;;;;;;;1.03;1.03;;;;;;;18.35;45.69;98880.03;5070789;28;20518;-60
2020/12/12 07:42:16;;;;;;;1.10;1.10;;;;;;;18.31;45.82;98884.22;5071605;28;20657;-59
2020/12/12 07:44:52;;;;;;;1.10;1.10;;;;;;;18.26;45.47;98892.97;5071488;28;20186;-60
2020/12/12 07:47:19;;;;;;;1.10;1.10;;;;;;;18.19;45.60;98891.28;5071304;28;20214;-65
2020/12/12 07:49:45;;;;;;;1.20;1.20;;;;;;;18.09;45.81;98897.97;5071195;28;20191;-58
2020/12/12 07:52:12;;;;;;;1.00;1.00;;;;;;;18.07;46.07;98900.06;5071398;28;20639;-60
2020/12/12 07:57:12;;;;;;;9.90;9.00;;;;;;;17.94;44.94;98908.19;5067806;28;20620;-63
2020/12/12 07:59:38;;;;;;;10.43;9.43;;;;;;;17.68;45.04;98905.47;5071703;28;20195;-63
2020/12/12 08:02:05;;;;;;;11.30;10.10;;;;;;;17.32;45.14;98917.44;5071417;28;20203;-63
2020/12/12 08:04:32;;;;;;;10.93;9.93;;;;;;;17.07;45.62;98924.44;5071495;28;20263;-63
2020/12/12 08:07:07;;;;;;;11.47;10.27;;;;;;;16.84;46.27;98924.75;5070991;28;20549;-59
2020/12/12 08:09:33;;;;;;;10.93;9.93;;;;;;;16.65;46.85;98928.97;5070273;28;20206;-60
2020/12/12 08:12:00;;;;;;;11.33;10.30;;;;;;;16.45;47.25;98944.22;5070229;28;20605;-66
2020/12/12 08:14:28;;;;;;;10.10;9.17;;;;;;;16.39;47.42;98942.31;5070366;28;20184;-59
2020/12/12 08:16:59;;;;;;;8.60;7.80;;;;;;;16.41;46.89;98942.94;5070543;28;20191;-59
2020/12/12 08:19:25;;;;;;;7.87;7.13;;;;;;;16.49;46.97;98950.88;5070290;28;20639;-63
2020/12/12 08:22:07;;;;;;;7.83;7.13;;;;;;;16.60;47.02;98952.22;5071122;28;20774;-63
2020/12/12 08:24:33;;;;;;;6.70;6.10;;;;;;;16.73;47.14;98955.00;5054493;28;20248;-58
2020/12/12 08:27:00;;;;;;;6.17;5.67;;;;;;;16.85;47.35;98959.66;5070114;28;20184;-57
2020/12/12 08:29:26;;;;;;;5.47;5.03;;;;;;;17.01;46.87;98965.75;5070246;28;20198;-57
2020/12/12 08:31:52;;;;;;;5.40;4.90;;;;;;;17.13;47.10;98969.56;5053595;28;20183;-57
2020/12/12 08:34:21;;;;;;;4.63;4.23;;;;;;;17.26;46.55;98966.91;5071236;28;20183;-57
2020/12/12 08:36:47;;;;;;;4.30;3.90;;;;;;;17.39;46.70;98972.38;5071424;28;20782;-65
2020/12/12 08:39:13;;;;;;;4.47;3.77;;;;;;;17.53;46.28;98983.25;5071262;28;20199;-65
2020/12/12 08:41:40;;;;;;;3.33;3.13;;;;;;;17.65;46.38;98987.84;5071110;28;20266;-65
2020/12/12 08:44:06;;;;;;;3.63;3.33;;;;;;;17.76;46.05;98989.16;5070979;28;20187;-59
2020/12/12 08:46:33;;;;;;;3.80;3.07;;;;;;;17.88;46.36;98987.50;5070720;28;20192;-59
2020/12/12 08:48:59;;;;;;;3.43;3.13;;;;;;;17.97;46.29;98998.97;5070746;28;20644;-65
2020/12/12 08:51:29;;;;;;;2.87;2.67;;;;;;;18.05;46.11;98999.63;5068850;28;20257;-65
2020/12/12 08:53:55;;;;;;;2.73;2.20;;;;;;;18.15;45.61;99001.06;5069238;28;20245;-66
2020/12/12 08:56:21;;;;;;;4.73;2.53;;;;;;;18.22;45.56;98999.22;5070661;28;20586;-65
2020/12/12 08:59:00;;;;;;;2.60;2.40;;;;;;;18.30;45.75;99001.72;5058661;28;20203;-66
2020/12/12 09:01:44;;;;;;;2.30;2.10;;;;;;;18.36;46.04;99004.41;5069149;28;20207;-59
2020/12/12 09:04:17;;;;;;;2.33;2.13;;;;;;;18.44;45.57;99007.94;5071861;28;20646;-58
2020/12/12 09:06:46;;;;;;;2.53;2.33;;;;;;;18.50;45.79;99007.97;5064903;28;20275;-65
2020/12/12 09:09:19;;;;;;;2.40;2.20;;;;;;;18.56;45.77;99009.00;5071076;28;20651;-55
2020/12/12 09:12:05;;;;;;;2.17;1.90;;;;;;;18.66;45.55;99018.38;5074192;28;20634;-66
2020/12/12 09:14:33;;;;;;;2.00;1.90;;;;;;;18.74;45.38;99027.34;5074072;28;20636;-59
2020/12/12 09:17:00;;;;;;;2.00;1.90;;;;;;;18.79;45.86;99032.97;5074293;28;20176;-59
2020/12/12 09:19:26;;;;;;;2.20;2.00;;;;;;;18.88;45.60;99037.13;5074384;28;20515;-59
2020/12/12 09:21:52;;;;;;;1.90;1.80;;;;;;;18.94;45.68;99041.72;5073942;28;20214;-57
2020/12/12 09:24:19;;;;;;;1.83;1.73;;;;;;;19.00;45.47;99040.88;5073960;28;20630;-57
2020/12/12 09:26:49;;;;;;;2.00;1.80;;;;;;;19.07;45.59;99041.69;5073780;28;20175;-58
2020/12/12 09:29:16;;;;;;;2.10;1.90;;;;;;;19.14;45.44;99042.47;5071998;28;20264;-58
2020/12/12 09:31:42;;;;;;;1.77;1.67;;;;;;;19.22;45.50;99044.97;5066800;28;20620;-57
2020/12/12 09:34:08;;;;;;;1.80;1.70;;;;;;;19.27;45.42;99047.88;5073849;28;20209;-67
2020/12/12 09:36:34;;;;;;;2.10;1.90;;;;;;;19.33;45.33;99049.72;5073831;28;20560;-67
2020/12/12 09:39:00;;;;;;;1.80;1.63;;;;;;;19.39;45.35;99056.19;5073783;28;20200;-59
2020/12/12 09:41:26;;;;;;;1.87;1.70;;;;;;;19.45;45.31;99047.22;5066704;28;20245;-59
2020/12/12 09:43:52;;;;;;;1.80;1.70;;;;;;;19.52;45.34;99058.84;5072434;28;20179;-59
2020/12/12 09:46:19;;;;;;;1.80;1.70;;;;;;;19.57;45.15;99063.66;5072498;28;20180;-59
2020/12/12 09:48:46;;;;;;;1.70;1.60;;;;;;;19.62;45.09;99061.13;5073424;28;20199;-59
2020/12/12 09:51:14;;;;;;;1.80;1.70;;;;;;;19.69;45.62;99061.13;5073685;28;20372;-59
2020/12/12 09:53:41;;;;;;;1.60;1.50;;;;;;;19.75;45.26;99077.38;5072768;28;20712;-59
2020/12/12 09:56:08;;;;;;;2.23;1.80;;;;;;;19.80;44.93;99074.84;5073601;28;20187;-59
2020/12/12 09:58:34;;;;;;;2.27;1.70;;;;;;;19.85;45.09;99069.59;5073109;28;20211;-67
2020/12/12 10:01:00;;;;;;;1.70;1.60;;;;;;;19.92;45.14;99077.72;5072523;28;20285;-67
2020/12/12 10:03:26;;;;;;;2.13;1.93;;;;;;;19.95;44.90;99080.00;5073475;28;20192;-66
2020/12/12 10:05:52;;;;;;;1.90;1.70;;;;;;;20.00;45.01;99079.34;5073192;28;20233;-58
2020/12/12 10:08:18;;;;;;;1.80;1.70;;;;;;;20.04;45.12;99089.53;5071915;28;20231;-58
2020/12/12 10:10:44;;;;;;;1.83;1.73;;;;;;;20.09;45.08;99088.88;5073183;28;20187;-60
2020/12/12 10:13:10;;;;;;;1.90;1.60;;;;;;;20.14;45.03;99091.81;5073014;28;20188;-58
2020/12/12 10:15:36;;;;;;;1.43;1.33;;;;;;;20.20;44.85;99101.78;5072933;28;20253;-58
2020/12/12 10:18:02;;;;;;;1.70;1.60;;;;;;;20.24;44.73;99092.16;5072718;28;20207;-58
2020/12/12 10:20:29;;;;;;;1.77;1.60;;;;;;;20.28;44.99;99093.38;5069444;28;20282;-61
2020/12/12 10:22:55;;;;;;;2.23;1.60;;;;;;;20.32;44.81;99088.31;5064322;28;20216;-61
2020/12/12 10:25:21;;;;;;;1.97;1.80;;;;;;;20.35;44.82;99094.19;5071918;28;20245;-57
2020/12/12 10:27:47;;;;;;;3.00;2.07;;;;;;;20.38;44.98;99093.75;5072646;28;20208;-58
2020/12/12 10:30:14;;;;;;;1.73;1.63;;;;;;;20.42;44.81;99097.72;5072657;28;20194;-58
2020/12/12 10:32:40;;;;;;;2.97;1.83;;;;;;;20.44;44.81;99103.75;5072720;28;20191;-58
2020/12/12 10:35:08;;;;;;;1.93;1.83;;;;;;;20.49;44.68;99103.94;5072517;28;20183;-66
2020/12/12 10:37:34;;;;;;;2.03;1.83;;;;;;;20.53;44.68;99113.31;5071110;28;20211;-63
2020/12/12 10:42:35;;;;;;;2.57;1.70;;;;;;;20.61;44.89;99116.81;5072316;28;20215;-63
2020/12/12 10:45:01;;;;;;;1.67;1.57;;;;;;;20.64;44.72;99119.94;5071841;28;20249;-59
2020/12/12 10:47:27;;;;;;;2.33;1.80;;;;;;;20.68;44.59;99120.31;5072582;28;20207;-60
2020/12/12 10:49:53;;;;;;;2.60;1.70;;;;;;;20.72;44.88;99126.97;5072344;28;20195;-67
2020/12/12 10:52:19;;;;;;;3.07;1.90;;;;;;;20.75;44.86;99129.25;5072118;28;20261;-67
2020/12/12 10:54:48;;;;;;;2.20;2.00;;;;;;;20.80;44.56;99129.41;5072313;28;20321;-60
2020/12/12 10:57:14;;;;;;;1.87;1.60;;;;;;;20.82;44.77;99130.88;5068890;28;20194;-59
2020/12/12 10:59:42;;;;;;;4.83;2.10;;;;;;;20.88;44.69;99125.59;5071705;28;20183;-58
2020/12/12 11:02:10;;;;;;;3.17;1.80;;;;;;;20.92;44.46;99122.22;5071165;28;20310;-63
2020/12/12 11:04:36;;;;;;;3.37;2.00;;;;;;;20.95;44.60;99129.09;5071153;28;20187;-64
2020/12/12 11:07:02;;;;;;;3.10;2.00;;;;;;;20.98;44.65;99126.75;5071945;28;20655;-67
2020/12/12 11:09:29;;;;;;;2.70;1.80;;;;;;;21.01;44.45;99126.31;5071352;28;20531;-67
2020/12/12 11:11:55;;;;;;;3.63;2.00;;;;;;;21.04;44.62;99123.13;5072114;28;20683;-67
2020/12/12 11:14:21;;;;;;;2.67;2.20;;;;;;;21.06;44.63;99126.50;5071702;28;20191;-67
2020/12/12 11:16:47;;;;;;;2.53;2.00;;;;;;;21.09;44.62;99127.94;5071744;28;20195;-67
2020/12/12 11:19:13;;;;;;;3.00;2.30;;;;;;;21.12;44.49;99128.31;5071715;28;20294;-67
2020/12/12 11:21:40;;;;;;;3.40;2.07;;;;;;;21.15;44.60;99127.84;5071341;28;20215;-68
2020/12/12 11:24:07;;;;;;;2.33;1.90;;;;;;;21.19;44.62;99127.41;5071214;28;20188;-67
2020/12/12 11:26:33;;;;;;;3.93;2.20;;;;;;;21.22;44.60;99127.78;5071610;28;20188;-67
2020/12/12 11:28:59;;;;;;;3.23;2.30;;;;;;;21.25;44.30;99129.25;5071207;28;20211;-59
2020/12/12 11:31:25;;;;;;;3.50;2.10;;;;;;;21.27;44.35;99129.88;5072009;28;20237;-59
2020/12/12 11:34:01;;;;;;;2.33;2.07;;;;;;;21.30;44.31;99134.88;5071581;28;20203;-60
2020/12/12 11:36:44;;;;;;;2.07;1.90;;;;;;;21.32;44.48;99128.16;5069525;28;20633;-58
2020/12/12 11:42:40;;;;;;;3.33;2.03;;;;;;;21.37;44.46;99132.91;5071554;28;20215;-58
2020/12/12 11:47:10;;;;;;;2.70;2.00;;;;;;;21.42;44.13;99135.78;5060213;28;20661;-58